createdAt,value
2019-01-28T00:01:23.343Z,2.70
2019-01-28T00:06:29.381Z,2.67
2019-01-28T00:11:36.729Z,2.13
2019-01-28T00:16:42.787Z,2.70
2019-01-28T00:21:49.758Z,2.37
2019-01-28T00:26:56.132Z,2.33
2019-01-28T00:32:03.220Z,2.33
2019-01-28T00:37:09.315Z,2.00
2019-01-28T00:42:15.376Z,2.13
2019-01-28T00:47:21.387Z,2.40
2019-01-28T00:52:27.368Z,2.47
2019-01-28T00:57:34.592Z,2.73
2019-01-28T01:02:40.629Z,3.60
2019-01-28T01:07:46.754Z,3.07
2019-01-28T01:12:52.872Z,2.90
2019-01-28T01:17:58.881Z,2.00
2019-01-28T01:23:04.920Z,1.03
2019-01-28T01:28:10.948Z,1.80
2019-01-28T01:33:19.449Z,1.97
2019-01-28T01:38:25.580Z,2.13
2019-01-28T01:43:31.625Z,2.47
2019-01-28T01:48:37.628Z,2.10
2019-01-28T01:53:43.696Z,2.17
2019-01-28T01:58:50.545Z,2.30
2019-01-28T02:03:56.743Z,1.73
2019-01-28T02:09:02.827Z,2.20
2019-01-28T02:14:10.000Z,2.20
2019-01-28T02:19:16.157Z,1.90
2019-01-28T02:24:22.587Z,1.93
2019-01-28T02:29:28.598Z,2.33
2019-01-28T02:34:34.555Z,2.80
2019-01-28T02:39:41.730Z,2.23
2019-01-28T02:44:47.829Z,1.77
2019-01-28T02:49:53.740Z,1.50
2019-01-28T02:54:59.732Z,2.67
2019-01-28T03:00:10.219Z,2.77
2019-01-28T03:05:17.008Z,2.03
2019-01-28T03:10:23.606Z,2.17
2019-01-28T03:15:29.488Z,2.00
2019-01-28T03:20:35.437Z,1.50
2019-01-28T03:25:42.348Z,2.20
2019-01-28T03:30:48.436Z,1.90
2019-01-28T03:35:54.466Z,2.37
2019-01-28T03:41:00.500Z,1.90
2019-01-28T03:46:06.524Z,1.83
2019-01-28T03:51:12.558Z,2.00
2019-01-28T03:56:18.520Z,2.20
2019-01-28T04:01:26.475Z,1.80
2019-01-28T04:06:32.440Z,2.33
2019-01-28T04:11:38.696Z,2.30
2019-01-28T04:16:44.706Z,2.00
2019-01-28T04:21:51.974Z,1.90
2019-01-28T04:26:58.040Z,2.07
2019-01-28T04:32:05.195Z,2.20
2019-01-28T04:37:11.117Z,2.03
2019-01-28T04:42:17.144Z,2.30
2019-01-28T04:47:23.077Z,2.50
2019-01-28T04:52:29.302Z,2.10
2019-01-28T04:57:35.421Z,2.43
2019-01-28T05:02:41.487Z,2.30
2019-01-28T05:07:47.573Z,2.40
2019-01-28T05:12:53.557Z,2.50
2019-01-28T05:17:59.584Z,2.70
2019-01-28T05:23:05.625Z,2.33
2019-01-28T05:28:11.766Z,2.63
2019-01-28T05:33:17.767Z,2.20
2019-01-28T05:38:23.772Z,2.33
2019-01-28T05:43:30.058Z,2.40
2019-01-28T05:48:35.996Z,2.60
2019-01-28T05:53:42.043Z,2.40
2019-01-28T05:58:48.018Z,2.10
2019-01-28T06:03:54.062Z,1.87
2019-01-28T06:09:00.097Z,1.60
2019-01-28T06:14:06.288Z,1.80
2019-01-28T06:19:12.346Z,1.73
2019-01-28T06:24:18.355Z,2.07
2019-01-28T06:29:24.372Z,2.10
2019-01-28T06:34:30.453Z,2.37
2019-01-28T06:39:36.913Z,1.97
2019-01-28T06:44:43.237Z,2.13
2019-01-28T06:49:49.979Z,2.10
2019-01-28T06:54:55.987Z,2.60
2019-01-28T07:00:01.932Z,2.53
2019-01-28T07:05:07.985Z,2.50
2019-01-28T07:10:14.140Z,1.80
2019-01-28T07:15:20.896Z,2.57
2019-01-28T07:20:32.933Z,2.93
2019-01-28T07:25:38.940Z,3.13
2019-01-28T07:30:45.038Z,2.90
2019-01-28T07:35:51.068Z,3.07
2019-01-28T07:40:57.227Z,2.10
2019-01-28T07:46:03.317Z,2.10
2019-01-28T07:51:09.393Z,3.07
2019-01-28T07:56:15.475Z,3.03
2019-01-28T08:01:21.522Z,2.80
2019-01-28T08:06:27.535Z,2.47
2019-01-28T08:11:33.590Z,2.87
2019-01-28T08:16:39.701Z,2.47
2019-01-28T08:21:45.751Z,2.60
2019-01-28T08:26:55.030Z,2.77
2019-01-28T08:32:01.375Z,2.57
2019-01-28T08:37:07.307Z,2.60
2019-01-28T08:42:13.421Z,2.90
2019-01-28T08:47:19.450Z,2.37
2019-01-28T08:52:25.456Z,3.57
2019-01-28T08:57:31.471Z,2.07
2019-01-28T09:02:37.577Z,2.50
2019-01-28T09:07:43.596Z,1.87
2019-01-28T09:12:49.712Z,2.03
2019-01-28T09:17:56.748Z,2.70
2019-01-28T09:23:02.853Z,2.70
2019-01-28T09:28:08.956Z,2.67
2019-01-28T09:33:15.058Z,2.50
2019-01-28T09:38:21.802Z,2.70
2019-01-28T09:43:28.023Z,2.57
2019-01-28T09:48:34.617Z,2.43
2019-01-28T09:53:40.938Z,3.03
2019-01-28T09:58:47.228Z,3.23
2019-01-28T10:03:53.357Z,2.90
2019-01-28T10:08:59.519Z,3.07
2019-01-28T10:14:05.897Z,3.20
2019-01-28T10:19:12.568Z,2.60
2019-01-28T10:24:18.893Z,2.77
2019-01-28T10:29:24.982Z,2.33
2019-01-28T10:34:31.313Z,2.50
2019-01-28T10:39:37.481Z,2.60
2019-01-28T10:44:43.503Z,2.77
2019-01-28T10:49:50.058Z,2.63
2019-01-28T10:54:57.337Z,2.77
2019-01-28T11:00:04.477Z,3.03
2019-01-28T11:05:12.456Z,2.60
2019-01-28T11:10:20.335Z,2.40
2019-01-28T11:15:27.947Z,2.37
2019-01-28T11:20:36.430Z,2.57
2019-01-28T11:25:43.045Z,2.83
2019-01-28T11:30:55.186Z,2.70
2019-01-28T11:36:05.480Z,2.47
2019-01-28T11:41:09.209Z,2.47
2019-01-28T11:46:15.352Z,1.80
2019-01-28T11:51:21.653Z,2.07
2019-01-28T11:56:28.757Z,1.97
2019-01-28T12:01:34.854Z,2.17
2019-01-28T12:06:40.900Z,1.80
2019-01-28T12:11:47.010Z,2.07
2019-01-28T12:16:53.094Z,2.10
2019-01-28T12:21:59.178Z,1.93
2019-01-28T12:27:05.311Z,2.23
2019-01-28T12:32:11.616Z,2.10
2019-01-28T12:37:17.647Z,2.10
2019-01-28T12:42:23.737Z,2.30
2019-01-28T12:47:29.900Z,2.80
2019-01-28T12:52:36.288Z,1.93
2019-01-28T12:57:42.390Z,2.20
2019-01-28T13:02:48.533Z,1.50
2019-01-28T13:07:54.582Z,1.27
2019-01-28T13:13:00.634Z,1.13
2019-01-28T13:18:06.922Z,1.07
2019-01-28T13:23:13.193Z,1.20
2019-01-28T13:28:19.543Z,0.90
2019-01-28T13:33:25.707Z,0.90
2019-01-28T13:38:31.829Z,0.73
2019-01-28T13:43:37.873Z,0.80
2019-01-28T13:48:45.223Z,1.27
2019-01-28T13:53:51.430Z,1.23
2019-01-28T13:58:57.554Z,1.57
2019-01-28T14:04:03.720Z,0.70
2019-01-28T14:09:09.905Z,0.80
2019-01-28T14:14:15.932Z,0.90
2019-01-28T14:19:22.096Z,1.47
2019-01-28T14:24:28.277Z,1.10
2019-01-28T14:29:34.441Z,1.60
2019-01-28T14:34:40.517Z,1.30
2019-01-28T14:39:46.557Z,1.63
2019-01-28T14:44:52.517Z,1.83
2019-01-28T14:49:58.608Z,0.90
2019-01-28T14:55:05.735Z,1.10
2019-01-28T15:00:15.670Z,1.23
2019-01-28T15:05:21.728Z,1.50
2019-01-28T15:10:27.834Z,1.13
2019-01-28T15:15:35.452Z,1.50
2019-01-28T15:20:41.700Z,1.57
2019-01-28T15:25:47.901Z,1.70
2019-01-28T15:30:54.382Z,2.20
2019-01-28T15:36:00.439Z,2.83
2019-01-28T15:41:06.483Z,4.23
2019-01-28T15:46:12.547Z,1.87
2019-01-28T15:51:18.515Z,2.20
2019-01-28T15:56:24.497Z,1.80
2019-01-28T16:01:30.065Z,1.57
2019-01-28T16:06:36.138Z,1.30
2019-01-28T16:11:42.447Z,1.10
2019-01-28T16:16:48.520Z,1.30
2019-01-28T16:21:54.605Z,1.20
2019-01-28T16:27:00.593Z,1.30
2019-01-28T16:32:06.805Z,1.43
2019-01-28T16:37:12.850Z,1.63
